sensor_id;sensor_type;location;lat;lon;timestamp;P1;durP1;ratioP1;P2;durP2;ratioP2
2548;SDS011;1284;53.520;10.248;2023-03-23T00:01:53;1.88;;;0.60;;
2548;SDS011;1284;53.520;10.248;2023-03-23T00:04:18;2.97;;;0.82;;
2548;SDS011;1284;53.520;10.248;2023-03-23T00:06:45;1.60;;;0.88;;
2548;SDS011;1284;53.520;10.248;2023-03-23T00:09:12;1.35;;;0.70;;
2548;SDS011;1284;53.520;10.248;2023-03-23T00:11:40;2.45;;;0.82;;
2548;SDS011;1284;53.520;10.248;2023-03-23T00:14:10;0.77;;;0.60;;
2548;SDS011;1284;53.520;10.248;2023-03-23T00:19:12;0.88;;;0.63;;
2548;SDS011;1284;53.520;10.248;2023-03-23T00:21:38;0.73;;;0.63;;
2548;SDS011;1284;53.520;10.248;2023-03-23T00:24:11;0.73;;;0.70;;
2548;SDS011;1284;53.520;10.248;2023-03-23T00:26:41;2.20;;;0.77;;
2548;SDS011;1284;53.520;10.248;2023-03-23T00:29:18;1.95;;;0.93;;
2548;SDS011;1284;53.520;10.248;2023-03-23T00:31:49;1.45;;;0.88;;
2548;SDS011;1284;53.520;10.248;2023-03-23T00:34:20;1.52;;;0.82;;
2548;SDS011;1284;53.520;10.248;2023-03-23T00:36:47;1.13;;;0.73;;
2548;SDS011;1284;53.520;10.248;2023-03-23T00:39:22;1.20;;;0.98;;
2548;SDS011;1284;53.520;10.248;2023-03-23T00:41:53;1.80;;;0.85;;
2548;SDS011;1284;53.520;10.248;2023-03-23T00:44:26;1.02;;;0.80;;
2548;SDS011;1284;53.520;10.248;2023-03-23T00:46:53;2.92;;;0.93;;
2548;SDS011;1284;53.520;10.248;2023-03-23T00:49:22;2.25;;;1.20;;
2548;SDS011;1284;53.520;10.248;2023-03-23T00:51:53;1.90;;;1.08;;
2548;SDS011;1284;53.520;10.248;2023-03-23T00:54:20;1.33;;;0.68;;
2548;SDS011;1284;53.520;10.248;2023-03-23T00:56:48;0.82;;;0.73;;
2548;SDS011;1284;53.520;10.248;2023-03-23T00:59:14;1.73;;;0.98;;
2548;SDS011;1284;53.520;10.248;2023-03-23T01:01:40;1.58;;;0.80;;
2548;SDS011;1284;53.520;10.248;2023-03-23T01:04:06;1.40;;;0.63;;
2548;SDS011;1284;53.520;10.248;2023-03-23T01:06:36;1.63;;;0.98;;
2548;SDS011;1284;53.520;10.248;2023-03-23T01:09:09;1.65;;;0.80;;
2548;SDS011;1284;53.520;10.248;2023-03-23T01:11:40;2.40;;;1.40;;
2548;SDS011;1284;53.520;10.248;2023-03-23T01:14:06;2.63;;;1.73;;
2548;SDS011;1284;53.520;10.248;2023-03-23T01:16:31;1.88;;;1.08;;
2548;SDS011;1284;53.520;10.248;2023-03-23T01:18:57;1.73;;;0.60;;
2548;SDS011;1284;53.520;10.248;2023-03-23T01:21:22;1.73;;;1.15;;
2548;SDS011;1284;53.520;10.248;2023-03-23T01:23:50;1.42;;;0.63;;
2548;SDS011;1284;53.520;10.248;2023-03-23T01:26:17;4.15;;;2.35;;
2548;SDS011;1284;53.520;10.248;2023-03-23T01:28:47;3.35;;;1.15;;
2548;SDS011;1284;53.520;10.248;2023-03-23T01:31:14;2.15;;;1.00;;
2548;SDS011;1284;53.520;10.248;2023-03-23T01:33:42;1.38;;;0.75;;
2548;SDS011;1284;53.520;10.248;2023-03-23T01:36:12;3.83;;;0.82;;
2548;SDS011;1284;53.520;10.248;2023-03-23T01:38:41;1.05;;;0.80;;
2548;SDS011;1284;53.520;10.248;2023-03-23T01:41:09;1.42;;;0.98;;
2548;SDS011;1284;53.520;10.248;2023-03-23T01:43:35;1.33;;;0.90;;
2548;SDS011;1284;53.520;10.248;2023-03-23T01:46:01;1.50;;;1.00;;
2548;SDS011;1284;53.520;10.248;2023-03-23T01:51:04;1.88;;;1.00;;
2548;SDS011;1284;53.520;10.248;2023-03-23T01:53:37;4.47;;;1.02;;
2548;SDS011;1284;53.520;10.248;2023-03-23T01:56:06;1.35;;;0.70;;
2548;SDS011;1284;53.520;10.248;2023-03-23T01:58:36;1.55;;;1.05;;
2548;SDS011;1284;53.520;10.248;2023-03-23T02:01:05;1.10;;;0.88;;
2548;SDS011;1284;53.520;10.248;2023-03-23T02:03:34;1.67;;;1.08;;
2548;SDS011;1284;53.520;10.248;2023-03-23T02:06:01;1.30;;;0.90;;
2548;SDS011;1284;53.520;10.248;2023-03-23T02:08:59;1.30;;;0.80;;
2548;SDS011;1284;53.520;10.248;2023-03-23T02:11:25;1.60;;;0.93;;
2548;SDS011;1284;53.520;10.248;2023-03-23T02:13:50;2.72;;;0.98;;
2548;SDS011;1284;53.520;10.248;2023-03-23T02:16:19;1.77;;;1.02;;
2548;SDS011;1284;53.520;10.248;2023-03-23T02:27:15;2.72;;;1.33;;
2548;SDS011;1284;53.520;10.248;2023-03-23T02:35:10;2.30;;;0.90;;
2548;SDS011;1284;53.520;10.248;2023-03-23T02:37:52;2.22;;;1.15;;
2548;SDS011;1284;53.520;10.248;2023-03-23T02:40:42;1.85;;;0.90;;
2548;SDS011;1284;53.520;10.248;2023-03-23T02:43:15;1.90;;;1.10;;
2548;SDS011;1284;53.520;10.248;2023-03-23T02:45:45;0.90;;;0.60;;
2548;SDS011;1284;53.520;10.248;2023-03-23T02:48:12;1.42;;;0.88;;
2548;SDS011;1284;53.520;10.248;2023-03-23T02:50:41;1.08;;;0.77;;
2548;SDS011;1284;53.520;10.248;2023-03-23T02:53:11;1.70;;;0.87;;
2548;SDS011;1284;53.520;10.248;2023-03-23T02:55:41;1.25;;;0.95;;
2548;SDS011;1284;53.520;10.248;2023-03-23T02:58:12;2.15;;;1.27;;
2548;SDS011;1284;53.520;10.248;2023-03-23T03:00:40;2.13;;;1.17;;
2548;SDS011;1284;53.520;10.248;2023-03-23T03:03:08;7.40;;;1.15;;
2548;SDS011;1284;53.520;10.248;2023-03-23T03:05:40;1.83;;;1.02;;
2548;SDS011;1284;53.520;10.248;2023-03-23T03:10:55;1.30;;;1.15;;
2548;SDS011;1284;53.520;10.248;2023-03-23T03:13:41;3.83;;;1.35;;
2548;SDS011;1284;53.520;10.248;2023-03-23T03:16:14;0.70;;;0.70;;
2548;SDS011;1284;53.520;10.248;2023-03-23T03:21:20;1.98;;;1.10;;
2548;SDS011;1284;53.520;10.248;2023-03-23T03:23:55;0.60;;;0.60;;
2548;SDS011;1284;53.520;10.248;2023-03-23T03:26:24;2.95;;;0.90;;
2548;SDS011;1284;53.520;10.248;2023-03-23T03:28:57;1.83;;;1.23;;
2548;SDS011;1284;53.520;10.248;2023-03-23T03:31:26;1.95;;;1.10;;
2548;SDS011;1284;53.520;10.248;2023-03-23T03:33:54;2.72;;;1.33;;
2548;SDS011;1284;53.520;10.248;2023-03-23T03:36:22;1.10;;;0.80;;
2548;SDS011;1284;53.520;10.248;2023-03-23T03:38:51;1.63;;;1.15;;
2548;SDS011;1284;53.520;10.248;2023-03-23T03:41:18;1.27;;;0.98;;
2548;SDS011;1284;53.520;10.248;2023-03-23T03:43:46;1.63;;;1.10;;
2548;SDS011;1284;53.520;10.248;2023-03-23T03:46:11;2.28;;;1.20;;
2548;SDS011;1284;53.520;10.248;2023-03-23T03:48:37;2.50;;;1.73;;
2548;SDS011;1284;53.520;10.248;2023-03-23T03:51:06;1.38;;;1.20;;
2548;SDS011;1284;53.520;10.248;2023-03-23T03:53:37;1.95;;;0.85;;
2548;SDS011;1284;53.520;10.248;2023-03-23T03:56:03;1.77;;;0.93;;
2548;SDS011;1284;53.520;10.248;2023-03-23T03:58:36;1.90;;;1.20;;
2548;SDS011;1284;53.520;10.248;2023-03-23T04:01:21;1.88;;;0.98;;
2548;SDS011;1284;53.520;10.248;2023-03-23T04:03:48;3.70;;;0.90;;
2548;SDS011;1284;53.520;10.248;2023-03-23T04:06:24;1.90;;;1.38;;
2548;SDS011;1284;53.520;10.248;2023-03-23T04:08:56;1.15;;;0.73;;
2548;SDS011;1284;53.520;10.248;2023-03-23T04:11:24;1.27;;;1.13;;
2548;SDS011;1284;53.520;10.248;2023-03-23T04:13:53;1.95;;;0.90;;
2548;SDS011;1284;53.520;10.248;2023-03-23T04:16:20;1.48;;;1.13;;
2548;SDS011;1284;53.520;10.248;2023-03-23T04:18:47;1.38;;;1.10;;
2548;SDS011;1284;53.520;10.248;2023-03-23T04:21:14;1.20;;;0.80;;
2548;SDS011;1284;53.520;10.248;2023-03-23T04:23:44;0.85;;;0.82;;
2548;SDS011;1284;53.520;10.248;2023-03-23T04:26:11;1.52;;;1.42;;
2548;SDS011;1284;53.520;10.248;2023-03-23T04:28:40;3.10;;;1.63;;
2548;SDS011;1284;53.520;10.248;2023-03-23T04:31:29;2.25;;;1.35;;
2548;SDS011;1284;53.520;10.248;2023-03-23T04:34:05;1.90;;;1.27;;
2548;SDS011;1284;53.520;10.248;2023-03-23T04:36:37;1.90;;;1.30;;
2548;SDS011;1284;53.520;10.248;2023-03-23T04:39:10;1.25;;;1.10;;
2548;SDS011;1284;53.520;10.248;2023-03-23T04:41:37;2.80;;;1.30;;
2548;SDS011;1284;53.520;10.248;2023-03-23T04:44:41;1.40;;;0.90;;
2548;SDS011;1284;53.520;10.248;2023-03-23T04:49:45;1.38;;;1.27;;
2548;SDS011;1284;53.520;10.248;2023-03-23T04:52:37;2.05;;;1.15;;
2548;SDS011;1284;53.520;10.248;2023-03-23T04:55:25;2.40;;;1.65;;
2548;SDS011;1284;53.520;10.248;2023-03-23T04:57:55;2.60;;;1.70;;
2548;SDS011;1284;53.520;10.248;2023-03-23T05:00:50;2.45;;;1.45;;
2548;SDS011;1284;53.520;10.248;2023-03-23T05:03:18;2.75;;;1.65;;
2548;SDS011;1284;53.520;10.248;2023-03-23T05:05:45;3.63;;;1.55;;
2548;SDS011;1284;53.520;10.248;2023-03-23T05:08:13;2.25;;;1.63;;
2548;SDS011;1284;53.520;10.248;2023-03-23T05:10:40;2.47;;;1.40;;
2548;SDS011;1284;53.520;10.248;2023-03-23T05:13:10;1.60;;;0.98;;
2548;SDS011;1284;53.520;10.248;2023-03-23T05:15:36;1.55;;;1.17;;
2548;SDS011;1284;53.520;10.248;2023-03-23T05:18:03;1.92;;;1.30;;
2548;SDS011;1284;53.520;10.248;2023-03-23T05:20:30;3.45;;;1.40;;
2548;SDS011;1284;53.520;10.248;2023-03-23T05:23:02;2.35;;;1.50;;
2548;SDS011;1284;53.520;10.248;2023-03-23T05:25:33;3.15;;;1.48;;
2548;SDS011;1284;53.520;10.248;2023-03-23T05:28:15;1.75;;;1.50;;
2548;SDS011;1284;53.520;10.248;2023-03-23T05:30:50;1.95;;;1.25;;
2548;SDS011;1284;53.520;10.248;2023-03-23T05:33:17;2.35;;;1.33;;
2548;SDS011;1284;53.520;10.248;2023-03-23T05:35:56;1.80;;;1.15;;
2548;SDS011;1284;53.520;10.248;2023-03-23T05:38:27;2.92;;;2.08;;
2548;SDS011;1284;53.520;10.248;2023-03-23T05:40:53;1.50;;;1.27;;
2548;SDS011;1284;53.520;10.248;2023-03-23T05:43:26;2.78;;;1.45;;
2548;SDS011;1284;53.520;10.248;2023-03-23T05:46:05;3.03;;;1.30;;
2548;SDS011;1284;53.520;10.248;2023-03-23T05:48:36;1.45;;;0.93;;
2548;SDS011;1284;53.520;10.248;2023-03-23T05:51:03;1.20;;;0.98;;
2548;SDS011;1284;53.520;10.248;2023-03-23T05:53:31;1.25;;;0.70;;
2548;SDS011;1284;53.520;10.248;2023-03-23T05:55:58;1.05;;;0.98;;
2548;SDS011;1284;53.520;10.248;2023-03-23T05:58:44;2.47;;;1.05;;
2548;SDS011;1284;53.520;10.248;2023-03-23T06:01:10;3.38;;;0.90;;
2548;SDS011;1284;53.520;10.248;2023-03-23T06:03:39;0.80;;;0.80;;
2548;SDS011;1284;53.520;10.248;2023-03-23T06:06:24;1.58;;;0.60;;
2548;SDS011;1284;53.520;10.248;2023-03-23T06:09:02;1.80;;;1.10;;
2548;SDS011;1284;53.520;10.248;2023-03-23T06:11:40;3.83;;;1.20;;
2548;SDS011;1284;53.520;10.248;2023-03-23T06:14:23;0.98;;;0.60;;
2548;SDS011;1284;53.520;10.248;2023-03-23T06:16:49;2.85;;;1.40;;
2548;SDS011;1284;53.520;10.248;2023-03-23T06:19:15;1.23;;;0.65;;
2548;SDS011;1284;53.520;10.248;2023-03-23T06:21:50;1.52;;;0.85;;
2548;SDS011;1284;53.520;10.248;2023-03-23T06:24:23;0.70;;;0.63;;
2548;SDS011;1284;53.520;10.248;2023-03-23T06:26:48;0.85;;;0.60;;
2548;SDS011;1284;53.520;10.248;2023-03-23T06:29:18;0.82;;;0.50;;
2548;SDS011;1284;53.520;10.248;2023-03-23T06:31:48;1.15;;;0.73;;
2548;SDS011;1284;53.520;10.248;2023-03-23T06:34:18;0.55;;;0.55;;
2548;SDS011;1284;53.520;10.248;2023-03-23T06:36:47;1.00;;;0.45;;
2548;SDS011;1284;53.520;10.248;2023-03-23T06:39:25;1.63;;;0.80;;
2548;SDS011;1284;53.520;10.248;2023-03-23T06:44:48;0.65;;;0.52;;
2548;SDS011;1284;53.520;10.248;2023-03-23T06:47:14;0.88;;;0.50;;
2548;SDS011;1284;53.520;10.248;2023-03-23T06:49:45;1.05;;;0.68;;
2548;SDS011;1284;53.520;10.248;2023-03-23T06:52:18;0.65;;;0.30;;
2548;SDS011;1284;53.520;10.248;2023-03-23T06:54:44;1.48;;;0.45;;
2548;SDS011;1284;53.520;10.248;2023-03-23T06:57:11;0.40;;;0.40;;
2548;SDS011;1284;53.520;10.248;2023-03-23T06:59:36;1.52;;;0.80;;
2548;SDS011;1284;53.520;10.248;2023-03-23T07:02:03;1.23;;;0.60;;
2548;SDS011;1284;53.520;10.248;2023-03-23T07:04:31;1.40;;;0.50;;
2548;SDS011;1284;53.520;10.248;2023-03-23T07:07:09;2.05;;;0.80;;
2548;SDS011;1284;53.520;10.248;2023-03-23T07:10:09;2.00;;;0.88;;
2548;SDS011;1284;53.520;10.248;2023-03-23T07:12:36;0.85;;;0.60;;
2548;SDS011;1284;53.520;10.248;2023-03-23T07:15:04;1.65;;;1.08;;
2548;SDS011;1284;53.520;10.248;2023-03-23T07:17:30;0.55;;;0.55;;
2548;SDS011;1284;53.520;10.248;2023-03-23T07:20:11;1.00;;;0.70;;
2548;SDS011;1284;53.520;10.248;2023-03-23T07:22:37;0.82;;;0.60;;
2548;SDS011;1284;53.520;10.248;2023-03-23T07:25:11;0.63;;;0.47;;
2548;SDS011;1284;53.520;10.248;2023-03-23T07:31:31;0.70;;;0.50;;
2548;SDS011;1284;53.520;10.248;2023-03-23T07:33:57;0.98;;;0.77;;
2548;SDS011;1284;53.520;10.248;2023-03-23T07:36:31;0.98;;;0.60;;
2548;SDS011;1284;53.520;10.248;2023-03-23T07:38:57;0.47;;;0.47;;
2548;SDS011;1284;53.520;10.248;2023-03-23T07:41:24;0.52;;;0.40;;
2548;SDS011;1284;53.520;10.248;2023-03-23T07:43:51;1.90;;;0.88;;
2548;SDS011;1284;53.520;10.248;2023-03-23T07:46:28;0.80;;;0.70;;
2548;SDS011;1284;53.520;10.248;2023-03-23T07:49:13;0.88;;;0.40;;
2548;SDS011;1284;53.520;10.248;2023-03-23T07:55:12;0.50;;;0.30;;
2548;SDS011;1284;53.520;10.248;2023-03-23T07:58:11;0.52;;;0.45;;
2548;SDS011;1284;53.520;10.248;2023-03-23T08:00:47;0.43;;;0.38;;
2548;SDS011;1284;53.520;10.248;2023-03-23T08:03:16;0.70;;;0.38;;
2548;SDS011;1284;53.520;10.248;2023-03-23T08:05:56;0.80;;;0.50;;
2548;SDS011;1284;53.520;10.248;2023-03-23T08:08:42;0.57;;;0.55;;
2548;SDS011;1284;53.520;10.248;2023-03-23T08:11:30;1.38;;;0.85;;
2548;SDS011;1284;53.520;10.248;2023-03-23T08:14:34;0.70;;;0.60;;
2548;SDS011;1284;53.520;10.248;2023-03-23T08:17:22;0.57;;;0.43;;
2548;SDS011;1284;53.520;10.248;2023-03-23T08:20:08;0.32;;;0.32;;
2548;SDS011;1284;53.520;10.248;2023-03-23T08:22:57;0.40;;;0.30;;
2548;SDS011;1284;53.520;10.248;2023-03-23T08:25:55;1.00;;;0.75;;
2548;SDS011;1284;53.520;10.248;2023-03-23T08:28:41;0.70;;;0.40;;
2548;SDS011;1284;53.520;10.248;2023-03-23T08:31:34;0.80;;;0.60;;
2548;SDS011;1284;53.520;10.248;2023-03-23T08:34:11;0.30;;;0.30;;
2548;SDS011;1284;53.520;10.248;2023-03-23T08:36:52;0.85;;;0.47;;
2548;SDS011;1284;53.520;10.248;2023-03-23T08:39:40;0.50;;;0.47;;
2548;SDS011;1284;53.520;10.248;2023-03-23T08:42:30;1.30;;;0.88;;
2548;SDS011;1284;53.520;10.248;2023-03-23T08:45:16;0.68;;;0.50;;
2548;SDS011;1284;53.520;10.248;2023-03-23T08:48:15;1.00;;;0.60;;
2548;SDS011;1284;53.520;10.248;2023-03-23T08:51:00;1.38;;;0.50;;
2548;SDS011;1284;53.520;10.248;2023-03-23T08:53:48;0.82;;;0.60;;
2548;SDS011;1284;53.520;10.248;2023-03-23T08:56:45;0.50;;;0.45;;
2548;SDS011;1284;53.520;10.248;2023-03-23T08:59:23;0.75;;;0.50;;
2548;SDS011;1284;53.520;10.248;2023-03-23T09:02:01;0.98;;;0.65;;
2548;SDS011;1284;53.520;10.248;2023-03-23T09:04:41;0.45;;;0.45;;
2548;SDS011;1284;53.520;10.248;2023-03-23T09:09:58;0.32;;;0.32;;
2548;SDS011;1284;53.520;10.248;2023-03-23T09:12:24;0.77;;;0.45;;
2548;SDS011;1284;53.520;10.248;2023-03-23T09:14:49;0.40;;;0.20;;
2548;SDS011;1284;53.520;10.248;2023-03-23T09:17:15;0.95;;;0.43;;
2548;SDS011;1284;53.520;10.248;2023-03-23T09:19:40;0.10;;;0.10;;
2548;SDS011;1284;53.520;10.248;2023-03-23T09:22:06;0.40;;;0.40;;
2548;SDS011;1284;53.520;10.248;2023-03-23T09:24:33;0.30;;;0.30;;
2548;SDS011;1284;53.520;10.248;2023-03-23T09:26:58;0.30;;;0.30;;
2548;SDS011;1284;53.520;10.248;2023-03-23T09:29:24;0.52;;;0.20;;
2548;SDS011;1284;53.520;10.248;2023-03-23T09:31:51;0.20;;;0.20;;
2548;SDS011;1284;53.520;10.248;2023-03-23T09:34:18;0.20;;;0.20;;
2548;SDS011;1284;53.520;10.248;2023-03-23T09:36:43;0.13;;;0.13;;
2548;SDS011;1284;53.520;10.248;2023-03-23T09:39:09;0.20;;;0.10;;
2548;SDS011;1284;53.520;10.248;2023-03-23T09:50:15;0.40;;;0.20;;
2548;SDS011;1284;53.520;10.248;2023-03-23T09:55:18;1.55;;;0.20;;
2548;SDS011;1284;53.520;10.248;2023-03-23T10:00:37;0.10;;;0.10;;
2548;SDS011;1284;53.520;10.248;2023-03-23T10:03:13;0.75;;;0.32;;
2548;SDS011;1284;53.520;10.248;2023-03-23T10:05:53;0.65;;;0.40;;
2548;SDS011;1284;53.520;10.248;2023-03-23T10:08:21;0.10;;;0.10;;
2548;SDS011;1284;53.520;10.248;2023-03-23T10:10:56;1.25;;;0.30;;
2548;SDS011;1284;53.520;10.248;2023-03-23T10:13:26;0.93;;;0.38;;
2548;SDS011;1284;53.520;10.248;2023-03-23T10:16:37;0.20;;;0.00;;
2548;SDS011;1284;53.520;10.248;2023-03-23T10:21:37;0.10;;;0.00;;
2548;SDS011;1284;53.520;10.248;2023-03-23T10:24:10;0.20;;;0.20;;
2548;SDS011;1284;53.520;10.248;2023-03-23T10:27:03;0.25;;;0.25;;
2548;SDS011;1284;53.520;10.248;2023-03-23T10:29:36;0.22;;;0.10;;
2548;SDS011;1284;53.520;10.248;2023-03-23T10:32:11;0.52;;;0.28;;
2548;SDS011;1284;53.520;10.248;2023-03-23T10:37:24;0.30;;;0.20;;
2548;SDS011;1284;53.520;10.248;2023-03-23T10:39:54;0.03;;;0.03;;
2548;SDS011;1284;53.520;10.248;2023-03-23T10:42:29;0.28;;;0.13;;
2548;SDS011;1284;53.520;10.248;2023-03-23T10:44:58;3.47;;;0.25;;
2548;SDS011;1284;53.520;10.248;2023-03-23T10:47:26;0.28;;;0.25;;
2548;SDS011;1284;53.520;10.248;2023-03-23T10:52:27;0.40;;;0.40;;
2548;SDS011;1284;53.520;10.248;2023-03-23T10:58:01;2.38;;;0.50;;
2548;SDS011;1284;53.520;10.248;2023-03-23T11:00:29;6.32;;;0.30;;
2548;SDS011;1284;53.520;10.248;2023-03-23T11:03:05;1.38;;;0.65;;
2548;SDS011;1284;53.520;10.248;2023-03-23T11:08:03;1.17;;;0.40;;
2548;SDS011;1284;53.520;10.248;2023-03-23T11:10:37;0.30;;;0.20;;
2548;SDS011;1284;53.520;10.248;2023-03-23T11:13:13;0.10;;;0.10;;
2548;SDS011;1284;53.520;10.248;2023-03-23T11:15:41;0.13;;;0.13;;
2548;SDS011;1284;53.520;10.248;2023-03-23T11:18:19;0.00;;;0.00;;
2548;SDS011;1284;53.520;10.248;2023-03-23T11:20:46;2.13;;;0.40;;
2548;SDS011;1284;53.520;10.248;2023-03-23T11:23:22;0.75;;;0.15;;
2548;SDS011;1284;53.520;10.248;2023-03-23T11:28:25;0.90;;;0.28;;
2548;SDS011;1284;53.520;10.248;2023-03-23T11:30:57;0.03;;;0.03;;
2548;SDS011;1284;53.520;10.248;2023-03-23T11:33:24;1.65;;;0.20;;
2548;SDS011;1284;53.520;10.248;2023-03-23T11:35:53;3.80;;;0.73;;
2548;SDS011;1284;53.520;10.248;2023-03-23T11:38:20;4.57;;;1.20;;
2548;SDS011;1284;53.520;10.248;2023-03-23T11:40:51;2.22;;;0.30;;
2548;SDS011;1284;53.520;10.248;2023-03-23T11:43:24;0.50;;;0.50;;
2548;SDS011;1284;53.520;10.248;2023-03-23T11:48:47;1.08;;;0.10;;
2548;SDS011;1284;53.520;10.248;2023-03-23T11:56:25;0.55;;;0.30;;
2548;SDS011;1284;53.520;10.248;2023-03-23T11:59:12;4.55;;;0.93;;
2548;SDS011;1284;53.520;10.248;2023-03-23T12:16:00;3.97;;;0.22;;
2548;SDS011;1284;53.520;10.248;2023-03-23T12:18:56;0.50;;;0.17;;
2548;SDS011;1284;53.520;10.248;2023-03-23T12:24:03;0.30;;;0.20;;
2548;SDS011;1284;53.520;10.248;2023-03-23T12:26:54;0.80;;;0.45;;
2548;SDS011;1284;53.520;10.248;2023-03-23T12:35:25;1.83;;;0.20;;
2548;SDS011;1284;53.520;10.248;2023-03-23T12:48:49;0.13;;;0.13;;
2548;SDS011;1284;53.520;10.248;2023-03-23T12:54:01;0.47;;;0.38;;
2548;SDS011;1284;53.520;10.248;2023-03-23T12:56:33;1.67;;;0.68;;
2548;SDS011;1284;53.520;10.248;2023-03-23T12:59:06;0.43;;;0.22;;
2548;SDS011;1284;53.520;10.248;2023-03-23T13:01:45;0.43;;;0.30;;
2548;SDS011;1284;53.520;10.248;2023-03-23T13:07:18;1.80;;;1.20;;
2548;SDS011;1284;53.520;10.248;2023-03-23T13:12:30;0.30;;;0.20;;
2548;SDS011;1284;53.520;10.248;2023-03-23T13:17:53;0.38;;;0.20;;
2548;SDS011;1284;53.520;10.248;2023-03-23T13:23:09;0.28;;;0.20;;
2548;SDS011;1284;53.520;10.248;2023-03-23T13:25:51;0.40;;;0.35;;
2548;SDS011;1284;53.520;10.248;2023-03-23T13:28:27;0.30;;;0.30;;
2548;SDS011;1284;53.520;10.248;2023-03-23T13:33:50;2.28;;;0.80;;
2548;SDS011;1284;53.520;10.248;2023-03-23T13:36:19;0.52;;;0.25;;
2548;SDS011;1284;53.520;10.248;2023-03-23T13:38:52;0.57;;;0.40;;
2548;SDS011;1284;53.520;10.248;2023-03-23T13:41:18;0.40;;;0.25;;
2548;SDS011;1284;53.520;10.248;2023-03-23T13:43:46;0.40;;;0.30;;
2548;SDS011;1284;53.520;10.248;2023-03-23T13:54:03;0.70;;;0.30;;
2548;SDS011;1284;53.520;10.248;2023-03-23T13:56:41;0.22;;;0.10;;
2548;SDS011;1284;53.520;10.248;2023-03-23T13:59:16;0.57;;;0.25;;
2548;SDS011;1284;53.520;10.248;2023-03-23T14:01:54;0.75;;;0.28;;
2548;SDS011;1284;53.520;10.248;2023-03-23T14:04:31;0.68;;;0.40;;
2548;SDS011;1284;53.520;10.248;2023-03-23T14:07:08;0.30;;;0.28;;
2548;SDS011;1284;53.520;10.248;2023-03-23T14:09:39;0.28;;;0.15;;
2548;SDS011;1284;53.520;10.248;2023-03-23T14:12:21;0.13;;;0.13;;
2548;SDS011;1284;53.520;10.248;2023-03-23T14:14:55;0.40;;;0.40;;
2548;SDS011;1284;53.520;10.248;2023-03-23T14:17:31;0.52;;;0.30;;
2548;SDS011;1284;53.520;10.248;2023-03-23T14:19:59;0.40;;;0.30;;
2548;SDS011;1284;53.520;10.248;2023-03-23T14:22:44;1.45;;;0.32;;
2548;SDS011;1284;53.520;10.248;2023-03-23T14:27:34;0.22;;;0.10;;
2548;SDS011;1284;53.520;10.248;2023-03-23T14:30:00;0.63;;;0.30;;
2548;SDS011;1284;53.520;10.248;2023-03-23T14:32:30;2.08;;;0.22;;
2548;SDS011;1284;53.520;10.248;2023-03-23T14:34:57;0.28;;;0.20;;
2548;SDS011;1284;53.520;10.248;2023-03-23T14:37:24;0.10;;;0.10;;
2548;SDS011;1284;53.520;10.248;2023-03-23T14:39:54;0.10;;;0.10;;
2548;SDS011;1284;53.520;10.248;2023-03-23T14:42:35;1.48;;;0.60;;
2548;SDS011;1284;53.520;10.248;2023-03-23T14:45:02;0.10;;;0.10;;
2548;SDS011;1284;53.520;10.248;2023-03-23T14:47:38;0.13;;;0.00;;
2548;SDS011;1284;53.520;10.248;2023-03-23T14:52:48;0.20;;;0.20;;
2548;SDS011;1284;53.520;10.248;2023-03-23T14:55:21;0.10;;;0.10;;
2548;SDS011;1284;53.520;10.248;2023-03-23T14:57:48;1.75;;;0.30;;
2548;SDS011;1284;53.520;10.248;2023-03-23T15:00:16;0.10;;;0.10;;
2548;SDS011;1284;53.520;10.248;2023-03-23T15:02:45;0.22;;;0.08;;
2548;SDS011;1284;53.520;10.248;2023-03-23T15:05:15;0.13;;;0.13;;
2548;SDS011;1284;53.520;10.248;2023-03-23T15:07:45;0.17;;;0.10;;
2548;SDS011;1284;53.520;10.248;2023-03-23T15:10:16;0.20;;;0.20;;
2548;SDS011;1284;53.520;10.248;2023-03-23T15:12:45;0.10;;;0.10;;
2548;SDS011;1284;53.520;10.248;2023-03-23T15:17:46;0.10;;;0.10;;
2548;SDS011;1284;53.520;10.248;2023-03-23T15:22:56;0.25;;;0.25;;
2548;SDS011;1284;53.520;10.248;2023-03-23T15:25:30;0.10;;;0.10;;
2548;SDS011;1284;53.520;10.248;2023-03-23T15:28:06;0.10;;;0.10;;
2548;SDS011;1284;53.520;10.248;2023-03-23T15:30:53;0.17;;;0.13;;
2548;SDS011;1284;53.520;10.248;2023-03-23T15:33:23;0.10;;;0.10;;
2548;SDS011;1284;53.520;10.248;2023-03-23T15:35:53;0.05;;;0.05;;
2548;SDS011;1284;53.520;10.248;2023-03-23T15:38:22;0.00;;;0.00;;
2548;SDS011;1284;53.520;10.248;2023-03-23T15:40:57;3.05;;;0.20;;
2548;SDS011;1284;53.520;10.248;2023-03-23T15:43:31;0.08;;;0.05;;
2548;SDS011;1284;53.520;10.248;2023-03-23T15:51:16;0.20;;;0.20;;
2548;SDS011;1284;53.520;10.248;2023-03-23T15:53:43;2.72;;;0.43;;
2548;SDS011;1284;53.520;10.248;2023-03-23T15:56:09;0.63;;;0.20;;
2548;SDS011;1284;53.520;10.248;2023-03-23T15:58:37;0.10;;;0.10;;
2548;SDS011;1284;53.520;10.248;2023-03-23T16:01:11;0.13;;;0.08;;
2548;SDS011;1284;53.520;10.248;2023-03-23T16:06:05;0.13;;;0.13;;
2548;SDS011;1284;53.520;10.248;2023-03-23T16:08:31;0.20;;;0.20;;
2548;SDS011;1284;53.520;10.248;2023-03-23T16:10:56;2.50;;;0.10;;
2548;SDS011;1284;53.520;10.248;2023-03-23T16:13:22;0.85;;;0.10;;
2548;SDS011;1284;53.520;10.248;2023-03-23T16:15:47;0.08;;;0.08;;
2548;SDS011;1284;53.520;10.248;2023-03-23T16:18:20;0.65;;;0.22;;
2548;SDS011;1284;53.520;10.248;2023-03-23T16:20:47;0.28;;;0.15;;
2548;SDS011;1284;53.520;10.248;2023-03-23T16:23:13;0.32;;;0.08;;
2548;SDS011;1284;53.520;10.248;2023-03-23T16:25:39;0.22;;;0.20;;
2548;SDS011;1284;53.520;10.248;2023-03-23T16:28:07;0.00;;;0.00;;
2548;SDS011;1284;53.520;10.248;2023-03-23T16:30:35;0.65;;;0.30;;
2548;SDS011;1284;53.520;10.248;2023-03-23T16:33:04;0.20;;;0.13;;
2548;SDS011;1284;53.520;10.248;2023-03-23T16:35:30;0.47;;;0.15;;
2548;SDS011;1284;53.520;10.248;2023-03-23T16:37:56;0.85;;;0.10;;
2548;SDS011;1284;53.520;10.248;2023-03-23T16:40:22;0.43;;;0.10;;
2548;SDS011;1284;53.520;10.248;2023-03-23T16:42:49;0.55;;;0.20;;
2548;SDS011;1284;53.520;10.248;2023-03-23T16:45:15;0.55;;;0.30;;
2548;SDS011;1284;53.520;10.248;2023-03-23T16:47:42;0.10;;;0.10;;
2548;SDS011;1284;53.520;10.248;2023-03-23T16:50:09;0.10;;;0.10;;
2548;SDS011;1284;53.520;10.248;2023-03-23T16:52:40;0.28;;;0.20;;
2548;SDS011;1284;53.520;10.248;2023-03-23T16:55:08;0.30;;;0.30;;
2548;SDS011;1284;53.520;10.248;2023-03-23T16:57:35;0.80;;;0.38;;
2548;SDS011;1284;53.520;10.248;2023-03-23T17:00:06;0.50;;;0.20;;
2548;SDS011;1284;53.520;10.248;2023-03-23T17:02:35;0.30;;;0.30;;
2548;SDS011;1284;53.520;10.248;2023-03-23T17:05:01;0.20;;;0.20;;
2548;SDS011;1284;53.520;10.248;2023-03-23T17:07:27;0.00;;;0.00;;
2548;SDS011;1284;53.520;10.248;2023-03-23T17:09:53;0.13;;;0.10;;
2548;SDS011;1284;53.520;10.248;2023-03-23T17:12:18;0.00;;;0.00;;
2548;SDS011;1284;53.520;10.248;2023-03-23T17:14:45;0.00;;;0.00;;
2548;SDS011;1284;53.520;10.248;2023-03-23T17:17:10;0.20;;;0.20;;
2548;SDS011;1284;53.520;10.248;2023-03-23T17:19:36;0.10;;;0.10;;
2548;SDS011;1284;53.520;10.248;2023-03-23T17:22:02;0.15;;;0.15;;
2548;SDS011;1284;53.520;10.248;2023-03-23T17:24:27;0.55;;;0.38;;
2548;SDS011;1284;53.520;10.248;2023-03-23T17:26:53;0.30;;;0.30;;
2548;SDS011;1284;53.520;10.248;2023-03-23T17:29:19;0.15;;;0.15;;
2548;SDS011;1284;53.520;10.248;2023-03-23T17:31:47;0.30;;;0.30;;
2548;SDS011;1284;53.520;10.248;2023-03-23T17:34:13;1.00;;;0.20;;
2548;SDS011;1284;53.520;10.248;2023-03-23T17:36:39;0.35;;;0.20;;
2548;SDS011;1284;53.520;10.248;2023-03-23T17:39:04;0.75;;;0.40;;
2548;SDS011;1284;53.520;10.248;2023-03-23T17:41:30;0.77;;;0.47;;
2548;SDS011;1284;53.520;10.248;2023-03-23T17:43:56;0.10;;;0.10;;
2548;SDS011;1284;53.520;10.248;2023-03-23T17:46:25;0.45;;;0.20;;
2548;SDS011;1284;53.520;10.248;2023-03-23T17:48:51;0.17;;;0.17;;
2548;SDS011;1284;53.520;10.248;2023-03-23T17:51:17;0.43;;;0.30;;
2548;SDS011;1284;53.520;10.248;2023-03-23T17:53:42;0.52;;;0.35;;
2548;SDS011;1284;53.520;10.248;2023-03-23T17:56:08;0.40;;;0.30;;
2548;SDS011;1284;53.520;10.248;2023-03-23T17:58:33;1.33;;;0.60;;
2548;SDS011;1284;53.520;10.248;2023-03-23T18:00:59;0.70;;;0.50;;
2548;SDS011;1284;53.520;10.248;2023-03-23T18:03:25;0.70;;;0.57;;